Time;durP1;ratioP1;P1;durP2;ratioP2;P2;SDS_P1;SDS_P2;PMS_P1;PMS_P2;Temp;Humidity;BMP_temperature;BMP_pressure;BME280_temperature;BME280_humidity;BME280_pressure;Samples;Min_cycle;Max_cycle;Signal;HPM_P1;HPM_P2
2023/04/21 00:00:17;;;;;;;;;;;7.90;90.30;;;;;;5023936;28;19917;-88
2023/04/21 00:02:45;;;;;;;;;;;8.00;90.30;;;;;;5021265;28;19912;-87
2023/04/21 00:05:12;;;;;;;;;;;8.10;90.30;;;;;;5032739;28;20427;-87
2023/04/21 00:07:39;;;;;;;;;;;8.10;90.10;;;;;;5021669;28;19920;-87
2023/04/21 00:10:06;;;;;;;;;;;8.20;90.00;;;;;;5028344;28;19913;-87
2023/04/21 00:12:31;;;;;;;;;;;8.30;90.20;;;;;;5033798;28;19917;-87
2023/04/21 00:14:57;;;;;;;;;;;8.30;90.00;;;;;;5031453;28;19939;-86
2023/04/21 00:17:22;;;;;;;;;;;8.30;89.90;;;;;;5027071;28;19912;-86
2023/04/21 00:19:48;;;;;;;;;;;8.30;90.00;;;;;;5026857;28;19935;-87
2023/04/21 00:22:13;;;;;;;;;;;8.40;90.10;;;;;;5040098;28;19995;-87
2023/04/21 00:24:39;;;;;;;;;;;8.40;89.80;;;;;;5033570;28;19967;-87
2023/04/21 00:27:05;;;;;;;;;;;8.50;89.90;;;;;;5032226;28;19913;-87
2023/04/21 00:29:30;;;;;;;;;;;8.60;89.10;;;;;;5028648;28;19920;-88
2023/04/21 00:31:56;;;;;;;;;;;8.60;89.10;;;;;;5033739;28;20344;-86
2023/04/21 00:34:21;;;;;;;;;;;8.50;89.10;;;;;;5035296;28;20336;-87
2023/04/21 00:36:47;;;;;;;;;;;8.30;88.90;;;;;;5047352;28;19999;-87
2023/04/21 00:39:13;;;;;;;;;;;8.10;88.80;;;;;;5030556;28;20499;-87
2023/04/21 00:41:39;;;;;;;;;;;8.00;88.90;;;;;;5019921;28;19916;-87
2023/04/21 00:44:05;;;;;;;;;;;8.00;89.20;;;;;;5030917;28;19948;-87
2023/04/21 00:46:31;;;;;;;;;;;7.90;89.40;;;;;;5030136;28;19913;-87
2023/04/21 00:48:57;;;;;;;;;;;8.00;89.60;;;;;;5043399;28;19970;-88
2023/04/21 00:51:23;;;;;;;;;;;7.90;89.70;;;;;;5036859;28;21406;-87
2023/04/21 00:53:49;;;;;;;;;;;8.00;90.10;;;;;;5036382;28;19915;-87
2023/04/21 00:56:15;;;;;;;;;;;8.10;90.20;;;;;;5025552;28;19916;-86
2023/04/21 00:58:41;;;;;;;;;;;8.20;90.20;;;;;;5034376;28;20311;-87
2023/04/21 01:01:07;;;;;;;;;;;8.30;90.10;;;;;;5034206;28;19921;-87
2023/04/21 01:03:32;;;;;;;;;;;8.30;90.00;;;;;;5030092;28;19991;-86
2023/04/21 01:05:58;;;;;;;;;;;8.40;90.00;;;;;;5050828;28;19979;-84
2023/04/21 01:08:25;;;;;;;;;;;8.40;90.00;;;;;;5031931;28;19921;-85
2023/04/21 01:10:51;;;;;;;;;;;8.50;89.90;;;;;;5036743;28;19909;-86
2023/04/21 01:16:21;;;;;;;;;;;8.50;89.80;;;;;;5045229;28;19967;-87
2023/04/21 01:18:47;;;;;;;;;;;8.50;89.70;;;;;;5029145;28;19913;-87
2023/04/21 01:21:32;;;;;;;;;;;8.50;90.00;;;;;;5043361;28;19935;-85
2023/04/21 01:23:58;;;;;;;;;;;8.50;90.00;;;;;;5064070;28;19919;-85
2023/04/21 01:26:23;;;;;;;;;;;8.60;90.00;;;;;;5038449;28;20404;-86
2023/04/21 01:28:49;;;;;;;;;;;8.60;90.10;;;;;;5039450;28;19931;-85
2023/04/21 01:31:15;;;;;;;;;;;8.50;90.10;;;;;;5030505;28;20028;-85
2023/04/21 01:33:41;;;;;;;;;;;8.60;90.10;;;;;;5024510;28;19917;-85
2023/04/21 01:36:07;;;;;;;;;;;8.60;89.90;;;;;;5031148;28;19913;-86
2023/04/21 01:38:32;;;;;;;;;;;8.60;89.90;;;;;;5025582;28;20312;-86
2023/04/21 01:40:58;;;;;;;;;;;8.60;89.90;;;;;;5047446;28;19909;-84
2023/04/21 01:43:24;;;;;;;;;;;8.40;89.70;;;;;;5026814;28;20363;-84
2023/04/21 01:45:50;;;;;;;;;;;8.50;90.00;;;;;;5028771;28;19912;-85
2023/04/21 01:48:15;;;;;;;;;;;8.30;89.80;;;;;;5028060;28;19967;-86
2023/04/21 01:50:40;;;;;;;;;;;8.40;89.90;;;;;;5025414;28;20338;-86
2023/04/21 01:53:06;;;;;;;;;;;8.20;89.90;;;;;;5025320;28;19917;-86
2023/04/21 01:55:32;;;;;;;;;;;8.20;90.10;;;;;;5023775;28;19904;-86
2023/04/21 01:57:58;;;;;;;;;;;8.20;90.10;;;;;;5023918;28;19920;-85
2023/04/21 02:00:24;;;;;;;;;;;8.10;90.30;;;;;;5021362;28;20281;-86
2023/04/21 02:02:49;;;;;;;;;;;8.10;90.80;;;;;;5018803;28;19913;-86
2023/04/21 02:05:15;;;;;;;;;;;8.00;90.50;;;;;;5044420;28;20004;-86
2023/04/21 02:07:40;;;;;;;;;;;8.10;91.00;;;;;;5027075;28;19928;-85
2023/04/21 02:10:06;;;;;;;;;;;8.20;91.00;;;;;;5046464;28;19913;-86
2023/04/21 02:12:31;;;;;;;;;;;8.10;90.70;;;;;;5033127;28;20257;-86
2023/04/21 02:14:57;;;;;;;;;;;8.10;91.00;;;;;;5028761;28;19913;-86
2023/04/21 02:17:22;;;;;;;;;;;8.20;91.20;;;;;;5034990;28;19909;-87
2023/04/21 02:19:48;;;;;;;;;;;8.30;91.10;;;;;;5029873;28;19919;-86
2023/04/21 02:22:13;;;;;;;;;;;8.30;91.10;;;;;;5027827;28;19923;-85
2023/04/21 02:24:39;;;;;;;;;;;8.30;91.40;;;;;;5030972;28;20277;-86
2023/04/21 02:27:05;;;;;;;;;;;8.30;91.30;;;;;;5030729;28;19955;-86
2023/04/21 02:29:31;;;;;;;;;;;8.30;91.20;;;;;;5038578;28;19917;-87
2023/04/21 02:31:56;;;;;;;;;;;8.30;91.40;;;;;;5025093;28;19917;-87
2023/04/21 02:34:22;;;;;;;;;;;8.20;91.20;;;;;;5043417;28;19936;-87
2023/04/21 02:36:47;;;;;;;;;;;8.10;91.20;;;;;;5029618;28;20699;-87
2023/04/21 02:39:13;;;;;;;;;;;8.20;91.40;;;;;;5025822;28;19950;-88
2023/04/21 02:41:38;;;;;;;;;;;8.20;91.20;;;;;;5021375;28;19909;-87
2023/04/21 02:44:04;;;;;;;;;;;8.00;90.90;;;;;;5027225;28;19920;-87
2023/04/21 02:46:30;;;;;;;;;;;8.10;91.50;;;;;;5033994;28;20399;-87
2023/04/21 02:48:55;;;;;;;;;;;8.20;91.60;;;;;;5030923;28;19943;-86
2023/04/21 02:51:21;;;;;;;;;;;8.30;91.60;;;;;;5025545;28;19920;-86
2023/04/21 02:53:46;;;;;;;;;;;8.40;91.50;;;;;;5025574;28;19917;-88
2023/04/21 02:56:12;;;;;;;;;;;8.40;91.30;;;;;;5030641;28;19923;-87
2023/04/21 02:58:38;;;;;;;;;;;8.30;91.20;;;;;;5050068;28;19986;-86
2023/04/21 03:01:03;;;;;;;;;;;8.20;91.10;;;;;;5072767;22;20020;-79
2023/04/21 03:03:29;;;;;;;;;;;8.20;91.10;;;;;;5034350;28;19919;-79
2023/04/21 03:05:58;;;;;;;;;;;8.20;91.30;;;;;;5053312;28;20344;-79
2023/04/21 03:08:24;;;;;;;;;;;8.20;91.10;;;;;;5051660;28;19963;-81
2023/04/21 03:10:49;;;;;;;;;;;8.30;91.40;;;;;;5046799;28;19913;-79
2023/04/21 03:13:16;;;;;;;;;;;8.30;91.10;;;;;;5032336;28;19960;-80
2023/04/21 03:15:41;;;;;;;;;;;8.20;91.20;;;;;;5041138;28;19914;-80
2023/04/21 03:18:06;;;;;;;;;;;8.10;91.20;;;;;;5029502;28;20291;-80
2023/04/21 03:20:32;;;;;;;;;;;8.10;91.40;;;;;;5041562;28;19995;-80
2023/04/21 03:22:57;;;;;;;;;;;8.10;91.50;;;;;;5027378;28;19964;-80
2023/04/21 03:25:23;;;;;;;;;;;8.10;91.60;;;;;;5026493;28;19920;-80
2023/04/21 03:27:48;;;;;;;;;;;8.10;91.50;;;;;;5034958;28;19917;-80
2023/04/21 03:30:14;;;;;;;;;;;8.00;91.50;;;;;;5041822;28;20406;-79
2023/04/21 03:32:39;;;;;;;;;;;8.10;91.60;;;;;;5035717;28;19920;-79
2023/04/21 03:35:05;;;;;;;;;;;8.20;91.60;;;;;;5034761;28;19920;-79
2023/04/21 03:37:30;;;;;;;;;;;8.20;91.70;;;;;;5033656;28;20010;-80
2023/04/21 03:39:56;;;;;;;;;;;8.30;91.50;;;;;;5043619;28;19919;-79
2023/04/21 03:42:21;;;;;;;;;;;8.30;91.50;;;;;;5040515;28;19917;-80
2023/04/21 03:44:47;;;;;;;;;;;8.30;91.50;;;;;;5032678;28;20013;-80
2023/04/21 03:47:12;;;;;;;;;;;8.30;91.40;;;;;;5026746;28;19921;-80
2023/04/21 03:49:38;;;;;;;;;;;8.30;91.80;;;;;;5038322;28;19956;-80
2023/04/21 03:52:03;;;;;;;;;;;8.40;91.60;;;;;;5026669;28;19913;-80
2023/04/21 03:54:29;;;;;;;;;;;8.40;91.60;;;;;;5031895;28;19917;-81
2023/04/21 03:56:58;;;;;;;;;;;8.40;91.50;;;;;;5039284;28;19964;-80
2023/04/21 03:59:23;;;;;;;;;;;8.40;91.50;;;;;;5027136;28;19917;-81
2023/04/21 04:01:49;;;;;;;;;;;8.20;91.10;;;;;;5038854;28;20342;-80
2023/04/21 04:04:14;;;;;;;;;;;8.20;91.30;;;;;;5039990;28;20886;-78
2023/04/21 04:06:40;;;;;;;;;;;8.10;91.30;;;;;;5045623;28;19920;-80
2023/04/21 04:09:07;;;;;;;;;;;8.10;91.40;;;;;;5041448;28;19978;-80
2023/04/21 04:11:33;;;;;;;;;;;8.10;91.60;;;;;;5031471;28;19920;-79
2023/04/21 04:13:58;;;;;;;;;;;8.20;91.60;;;;;;5035316;28;19913;-80
2023/04/21 04:16:24;;;;;;;;;;;8.20;91.70;;;;;;5042482;28;19927;-80
2023/04/21 04:18:49;;;;;;;;;;;8.30;91.70;;;;;;5036184;28;19967;-80
2023/04/21 04:21:15;;;;;;;;;;;8.30;91.50;;;;;;5040079;28;19920;-80
2023/04/21 04:23:41;;;;;;;;;;;8.40;91.60;;;;;;5049693;28;20325;-80
2023/04/21 04:26:07;;;;;;;;;;;8.50;91.50;;;;;;5029761;28;19928;-81
2023/04/21 04:28:33;;;;;;;;;;;8.50;91.40;;;;;;5035432;28;19913;-80
2023/04/21 04:30:59;;;;;;;;;;;8.60;91.30;;;;;;5045071;28;19976;-80
2023/04/21 04:33:25;;;;;;;;;;;8.50;91.20;;;;;;5064077;28;19975;-80
2023/04/21 04:35:51;;;;;;;;;;;8.50;91.30;;;;;;5030828;28;19952;-80
2023/04/21 04:38:17;;;;;;;;;;;8.50;91.20;;;;;;5043913;28;20000;-81
2023/04/21 04:40:42;;;;;;;;;;;8.50;91.10;;;;;;5029258;28;19980;-79
2023/04/21 04:43:09;;;;;;;;;;;8.60;91.40;;;;;;5044352;28;19915;-79
2023/04/21 04:45:35;;;;;;;;;;;8.60;91.20;;;;;;5034925;28;19913;-79
2023/04/21 04:48:00;;;;;;;;;;;8.60;91.20;;;;;;5049721;28;20259;-80
2023/04/21 04:50:26;;;;;;;;;;;8.60;91.00;;;;;;5029304;28;19913;-80
2023/04/21 04:52:51;;;;;;;;;;;8.60;91.00;;;;;;5037419;28;19923;-81
2023/04/21 04:55:17;;;;;;;;;;;8.80;90.90;;;;;;5029122;28;19913;-80
2023/04/21 04:57:43;;;;;;;;;;;8.80;90.70;;;;;;5028425;28;19913;-80
2023/04/21 05:00:10;;;;;;;;;;;8.70;90.70;;;;;;5038909;28;19913;-79
2023/04/21 05:02:38;;;;;;;;;;;8.80;90.90;;;;;;5038697;28;20011;-80
2023/04/21 05:05:05;;;;;;;;;;;8.80;90.80;;;;;;5033924;28;19931;-80
2023/04/21 05:07:30;;;;;;;;;;;8.80;90.80;;;;;;5028456;28;20313;-78
2023/04/21 05:09:56;;;;;;;;;;;8.70;90.90;;;;;;5030662;28;19917;-80
2023/04/21 05:12:21;;;;;;;;;;;8.80;91.00;;;;;;5028895;28;20302;-80
2023/04/21 05:14:47;;;;;;;;;;;8.80;90.90;;;;;;5035314;28;19920;-79
2023/04/21 05:17:12;;;;;;;;;;;8.80;90.80;;;;;;5034207;28;19913;-80
2023/04/21 05:19:38;;;;;;;;;;;8.80;90.80;;;;;;5027468;28;19919;-80
2023/04/21 05:22:05;;;;;;;;;;;8.80;90.90;;;;;;5031649;28;19910;-78
2023/04/21 05:24:32;;;;;;;;;;;8.90;91.10;;;;;;5020566;28;20379;-80
2023/04/21 05:26:57;;;;;;;;;;;8.80;91.00;;;;;;5046742;28;19937;-80
2023/04/21 05:29:22;;;;;;;;;;;8.90;91.00;;;;;;5025552;28;19944;-80
2023/04/21 05:31:48;;;;;;;;;;;9.00;91.10;;;;;;5028384;28;19914;-79
2023/04/21 05:34:13;;;;;;;;;;;9.00;91.10;;;;;;5028635;28;19989;-79
2023/04/21 05:36:42;;;;;;;;;;;8.90;90.90;;;;;;5023569;28;19979;-79
2023/04/21 05:39:07;;;;;;;;;;;8.90;90.80;;;;;;5040868;28;19909;-78
2023/04/21 05:41:33;;;;;;;;;;;8.80;90.70;;;;;;5047014;28;19968;-79
2023/04/21 05:43:58;;;;;;;;;;;9.00;91.00;;;;;;5039653;28;19921;-80
2023/04/21 05:46:24;;;;;;;;;;;8.80;90.80;;;;;;5045991;28;20557;-81
2023/04/21 05:48:49;;;;;;;;;;;8.90;90.70;;;;;;5036509;28;19964;-80
2023/04/21 05:51:15;;;;;;;;;;;8.90;90.60;;;;;;5034668;28;19917;-80
2023/04/21 05:53:41;;;;;;;;;;;9.00;90.80;;;;;;5020071;28;19914;-79
2023/04/21 05:56:10;;;;;;;;;;;9.00;90.80;;;;;;5025416;28;19936;-80
2023/04/21 05:58:36;;;;;;;;;;;9.00;90.80;;;;;;5025926;28;19966;-81
2023/04/21 06:01:02;;;;;;;;;;;9.10;90.70;;;;;;5024680;28;19921;-82
2023/04/21 06:03:29;;;;;;;;;;;9.20;90.50;;;;;;5026698;28;19936;-81
2023/04/21 06:05:55;;;;;;;;;;;9.20;90.30;;;;;;5024202;28;19935;-80
2023/04/21 06:08:23;;;;;;;;;;;9.30;90.70;;;;;;5032611;28;19925;-80
2023/04/21 06:10:49;;;;;;;;;;;9.20;90.50;;;;;;5029338;28;19921;-80
2023/04/21 06:13:14;;;;;;;;;;;9.30;90.50;;;;;;5030713;28;19927;-80
2023/04/21 06:15:40;;;;;;;;;;;9.30;90.60;;;;;;5020120;28;19914;-80
2023/04/21 06:18:06;;;;;;;;;;;9.40;90.60;;;;;;5023808;28;19913;-80
2023/04/21 06:20:31;;;;;;;;;;;9.50;90.30;;;;;;5023422;28;20000;-80
2023/04/21 06:22:56;;;;;;;;;;;9.50;90.40;;;;;;5030663;28;19956;-84
2023/04/21 06:25:22;;;;;;;;;;;9.50;90.10;;;;;;5040993;28;19914;-81
2023/04/21 06:27:47;;;;;;;;;;;9.60;90.10;;;;;;5031409;28;19926;-81
2023/04/21 06:30:13;;;;;;;;;;;9.60;90.10;;;;;;5014005;28;20282;-85
2023/04/21 06:32:39;;;;;;;;;;;9.60;90.30;;;;;;5050789;28;19913;-84
2023/04/21 06:35:04;;;;;;;;;;;9.60;90.40;;;;;;5029351;28;19945;-81
2023/04/21 06:37:30;;;;;;;;;;;9.60;90.30;;;;;;5026530;28;19920;-81
2023/04/21 06:39:56;;;;;;;;;;;9.60;90.50;;;;;;5037068;28;19920;-81
2023/04/21 06:42:21;;;;;;;;;;;9.70;90.40;;;;;;5046791;28;19994;-82
2023/04/21 06:44:46;;;;;;;;;;;9.70;90.10;;;;;;5058253;28;19912;-81
2023/04/21 06:47:12;;;;;;;;;;;9.70;90.20;;;;;;5049573;28;19913;-81
2023/04/21 06:49:38;;;;;;;;;;;9.70;90.20;;;;;;5040104;28;20326;-81
2023/04/21 06:52:03;;;;;;;;;;;9.80;89.90;;;;;;5043062;28;19957;-79
2023/04/21 06:54:29;;;;;;;;;;;9.80;89.80;;;;;;5073750;28;20008;-79
2023/04/21 06:56:55;;;;;;;;;;;9.80;90.00;;;;;;5066832;28;19909;-81
2023/04/21 06:59:21;;;;;;;;;;;9.80;90.30;;;;;;5049479;28;19913;-81
2023/04/21 07:01:50;;;;;;;;;;;9.90;90.50;;;;;;5039582;28;19917;-80
2023/04/21 07:04:16;;;;;;;;;;;10.00;90.50;;;;;;5038037;28;19959;-80
2023/04/21 07:06:42;;;;;;;;;;;10.10;90.80;;;;;;5038116;28;19913;-81
2023/04/21 07:09:08;;;;;;;;;;;10.20;90.50;;;;;;5037406;28;19917;-81
2023/04/21 07:11:33;;;;;;;;;;;10.20;89.90;;;;;;5040251;28;19924;-80
2023/04/21 07:14:01;;;;;;;;;;;10.20;90.10;;;;;;5032892;28;19917;-81
2023/04/21 07:16:29;;;;;;;;;;;10.20;89.50;;;;;;5030847;28;19917;-81
2023/04/21 07:18:55;;;;;;;;;;;10.30;89.50;;;;;;5034201;28;19917;-81
2023/04/21 07:21:20;;;;;;;;;;;10.40;89.50;;;;;;5025836;28;19985;-82
2023/04/21 07:23:46;;;;;;;;;;;10.40;88.80;;;;;;5033516;28;19913;-81
2023/04/21 07:26:11;;;;;;;;;;;10.40;89.00;;;;;;5032140;28;20441;-81
2023/04/21 07:28:37;;;;;;;;;;;10.50;89.10;;;;;;5030600;28;19921;-82
2023/04/21 07:31:03;;;;;;;;;;;10.40;88.90;;;;;;5028046;28;19914;-81
2023/04/21 07:33:28;;;;;;;;;;;10.50;88.90;;;;;;5033029;28;19939;-81
2023/04/21 07:35:54;;;;;;;;;;;10.50;88.60;;;;;;5031364;28;19924;-80
2023/04/21 07:38:19;;;;;;;;;;;10.50;89.10;;;;;;5034987;28;19935;-80
2023/04/21 07:40:45;;;;;;;;;;;10.50;88.90;;;;;;5033014;28;19917;-82
2023/04/21 07:43:10;;;;;;;;;;;10.50;88.80;;;;;;5024816;28;19913;-82
2023/04/21 07:45:36;;;;;;;;;;;10.50;88.90;;;;;;5051337;28;19913;-81
2023/04/21 07:48:01;;;;;;;;;;;10.50;89.30;;;;;;5032033;28;19926;-81
2023/04/21 07:50:27;;;;;;;;;;;10.60;88.90;;;;;;5033143;28;19917;-81
2023/04/21 07:52:52;;;;;;;;;;;10.60;88.10;;;;;;5025845;28;19936;-79
2023/04/21 07:55:18;;;;;;;;;;;10.60;88.60;;;;;;5034162;28;20426;-81
2023/04/21 07:57:43;;;;;;;;;;;10.60;88.50;;;;;;5031490;28;19913;-81
2023/04/21 08:00:09;;;;;;;;;;;10.60;88.60;;;;;;5026921;28;19913;-79
2023/04/21 08:02:35;;;;;;;;;;;10.60;87.40;;;;;;5025628;28;19924;-80
2023/04/21 08:05:00;;;;;;;;;;;10.50;87.70;;;;;;5026451;28;19924;-83
2023/04/21 08:07:26;;;;;;;;;;;10.60;87.70;;;;;;5032190;28;19917;-83
2023/04/21 08:09:51;;;;;;;;;;;10.60;87.40;;;;;;5029821;28;19913;-83
2023/04/21 08:12:16;;;;;;;;;;;10.60;87.10;;;;;;5036956;28;20374;-83
2023/04/21 08:14:42;;;;;;;;;;;10.60;86.80;;;;;;5020091;28;19913;-83
2023/04/21 08:17:07;;;;;;;;;;;10.60;87.20;;;;;;5033095;28;19971;-83
2023/04/21 08:19:33;;;;;;;;;;;10.60;87.70;;;;;;5034412;28;20436;-82
2023/04/21 08:21:58;;;;;;;;;;;10.60;87.40;;;;;;5037074;28;19913;-82
2023/04/21 08:24:24;;;;;;;;;;;10.70;87.40;;;;;;5038634;28;19913;-82
2023/04/21 08:26:49;;;;;;;;;;;10.70;87.50;;;;;;5037278;28;19924;-81
2023/04/21 08:29:15;;;;;;;;;;;10.70;87.50;;;;;;5040332;28;19932;-83
2023/04/21 08:31:43;;;;;;;;;;;10.70;87.30;;;;;;5029580;28;19921;-83
2023/04/21 08:34:09;;;;;;;;;;;10.80;87.50;;;;;;5035573;28;20374;-82
2023/04/21 08:36:34;;;;;;;;;;;10.80;87.00;;;;;;5024546;28;19914;-82
2023/04/21 08:39:00;;;;;;;;;;;10.80;86.80;;;;;;5020530;28;19920;-81
2023/04/21 08:41:26;;;;;;;;;;;10.70;87.40;;;;;;5026621;28;20505;-81
2023/04/21 08:43:51;;;;;;;;;;;10.70;87.80;;;;;;5019706;28;19914;-80
2023/04/21 08:46:17;;;;;;;;;;;10.80;87.40;;;;;;5027668;28;19913;-79
2023/04/21 08:48:44;;;;;;;;;;;10.80;87.30;;;;;;5028898;28;19917;-79
2023/04/21 08:51:10;;;;;;;;;;;10.90;87.20;;;;;;5030244;28;20075;-80
2023/04/21 08:53:36;;;;;;;;;;;10.90;87.00;;;;;;5043198;28;19913;-79
2023/04/21 08:56:02;;;;;;;;;;;10.90;86.40;;;;;;5030108;28;20379;-80
2023/04/21 08:58:27;;;;;;;;;;;11.00;87.30;;;;;;5025134;28;19917;-80
2023/04/21 09:03:26;;;;;;;;;;;11.00;87.30;;;;;;5022568;28;20739;-86
2023/04/21 09:06:06;;;;;;;;;;;11.10;87.50;;;;;;5092347;27;19931;-78
2023/04/21 09:08:32;;;;;;;;;;;11.10;87.20;;;;;;5086865;28;19995;-78
2023/04/21 09:10:58;;;;;;;;;;;11.10;86.70;;;;;;5083744;28;19912;-77
2023/04/21 09:13:31;;;;;;;;;;;11.10;86.80;;;;;;5066523;28;19913;-78
2023/04/21 09:15:57;;;;;;;;;;;11.10;86.70;;;;;;5070267;28;20381;-83
2023/04/21 09:18:24;;;;;;;;;;;11.20;86.80;;;;;;5066847;28;19999;-77
2023/04/21 09:20:50;;;;;;;;;;;11.20;86.60;;;;;;5063098;28;19912;-77
2023/04/21 09:23:16;;;;;;;;;;;11.30;86.60;;;;;;5062150;28;19920;-77
2023/04/21 09:25:42;;;;;;;;;;;11.30;86.00;;;;;;5057917;28;19931;-77
2023/04/21 09:28:08;;;;;;;;;;;11.30;86.00;;;;;;5064186;28;20461;-77
2023/04/21 09:30:35;;;;;;;;;;;11.50;86.40;;;;;;5063640;28;19913;-77
2023/04/21 09:33:00;;;;;;;;;;;11.50;85.60;;;;;;5059627;28;19917;-77
2023/04/21 09:35:31;;;;;;;;;;;11.60;85.50;;;;;;5061057;28;19967;-77
2023/04/21 09:37:56;;;;;;;;;;;11.60;85.80;;;;;;5057342;28;19921;-77
2023/04/21 09:40:22;;;;;;;;;;;11.80;84.90;;;;;;5063720;28;19920;-78
2023/04/21 09:42:49;;;;;;;;;;;11.80;85.30;;;;;;5060962;28;19917;-77
2023/04/21 09:45:15;;;;;;;;;;;11.80;85.20;;;;;;5061266;28;19923;-77
2023/04/21 09:47:41;;;;;;;;;;;11.90;85.50;;;;;;5066894;28;20007;-76
2023/04/21 09:50:08;;;;;;;;;;;12.10;84.80;;;;;;5068696;28;19920;-77
2023/04/21 09:52:36;;;;;;;;;;;12.20;84.60;;;;;;5064188;28;19913;-78
2023/04/21 09:55:03;;;;;;;;;;;12.10;83.70;;;;;;5061611;28;19921;-79
2023/04/21 09:57:30;;;;;;;;;;;12.10;84.30;;;;;;5066819;28;19920;-79
2023/04/21 09:59:59;;;;;;;;;;;12.10;84.00;;;;;;5066236;28;19992;-80
2023/04/21 10:02:28;;;;;;;;;;;12.20;83.50;;;;;;5077190;28;19919;-79
2023/04/21 10:04:54;;;;;;;;;;;12.20;83.60;;;;;;5079088;28;19981;-80
2023/04/21 10:07:19;;;;;;;;;;;12.30;83.80;;;;;;5075675;28;19912;-78
2023/04/21 10:09:47;;;;;;;;;;;12.40;82.80;;;;;;5077514;28;19909;-80
2023/04/21 10:12:14;;;;;;;;;;;12.50;83.20;;;;;;5081011;28;19919;-80
2023/04/21 10:14:39;;;;;;;;;;;12.70;83.00;;;;;;5079545;28;19909;-80
2023/04/21 10:17:08;;;;;;;;;;;12.80;82.30;;;;;;5071062;28;20440;-80
2023/04/21 10:19:38;;;;;;;;;;;12.80;81.50;;;;;;5067236;28;19913;-79
2023/04/21 10:22:08;;;;;;;;;;;12.80;81.20;;;;;;5068551;28;20003;-78
2023/04/21 10:24:41;;;;;;;;;;;12.80;80.50;;;;;;5057901;28;20295;-79
2023/04/21 10:27:10;;;;;;;;;;;13.00;82.60;;;;;;5064559;28;19913;-79
2023/04/21 10:29:36;;;;;;;;;;;13.10;81.90;;;;;;5064429;28;20009;-79
2023/04/21 10:32:02;;;;;;;;;;;13.10;82.60;;;;;;5063319;28;19912;-79
2023/04/21 10:34:29;;;;;;;;;;;13.20;81.40;;;;;;5064501;28;19924;-79
2023/04/21 10:36:54;;;;;;;;;;;13.20;80.10;;;;;;5063700;28;19912;-80
2023/04/21 10:39:26;;;;;;;;;;;13.20;82.00;;;;;;5071549;28;19991;-79
2023/04/21 10:41:54;;;;;;;;;;;13.30;80.00;;;;;;5063928;28;19917;-79
2023/04/21 10:44:20;;;;;;;;;;;13.50;79.50;;;;;;5053068;28;19924;-79
2023/04/21 10:46:47;;;;;;;;;;;13.50;79.20;;;;;;5056500;28;19913;-79
2023/04/21 10:49:29;;;;;;;;;;;13.60;79.50;;;;;;5061385;28;19917;-80
2023/04/21 10:51:58;;;;;;;;;;;13.80;80.90;;;;;;5069407;28;19991;-82
2023/04/21 10:54:24;;;;;;;;;;;13.80;79.00;;;;;;5066329;28;19982;-80
2023/04/21 10:56:50;;;;;;;;;;;13.90;79.40;;;;;;5064236;28;20114;-80
2023/04/21 10:59:17;;;;;;;;;;;13.80;78.30;;;;;;5070240;28;19943;-80
2023/04/21 11:01:42;;;;;;;;;;;13.70;79.70;;;;;;5062438;28;19913;-80
2023/04/21 11:04:18;;;;;;;;;;;13.70;79.30;;;;;;5065235;28;20095;-80
2023/04/21 11:07:03;;;;;;;;;;;13.60;79.30;;;;;;5067617;28;19924;-82
2023/04/21 11:09:32;;;;;;;;;;;13.60;79.60;;;;;;5066432;28;19921;-80
2023/04/21 11:11:59;;;;;;;;;;;13.50;79.50;;;;;;5061637;28;19917;-80
2023/04/21 11:14:24;;;;;;;;;;;13.50;80.00;;;;;;5059653;28;19917;-81
2023/04/21 11:16:50;;;;;;;;;;;13.50;80.70;;;;;;5065673;28;19913;-81
2023/04/21 11:19:16;;;;;;;;;;;13.40;78.90;;;;;;5064876;28;19920;-81
2023/04/21 11:21:41;;;;;;;;;;;13.30;78.90;;;;;;5066862;28;19916;-78
2023/04/21 11:24:08;;;;;;;;;;;13.30;79.60;;;;;;5045468;28;19970;-79
2023/04/21 11:26:45;;;;;;;;;;;13.30;79.50;;;;;;5071821;28;19913;-79
2023/04/21 11:29:10;;;;;;;;;;;13.30;79.30;;;;;;5050588;28;19921;-79
2023/04/21 11:31:38;;;;;;;;;;;13.50;79.60;;;;;;5048925;28;19927;-79
2023/04/21 11:34:04;;;;;;;;;;;13.60;79.10;;;;;;5057550;28;20007;-79
2023/04/21 11:36:33;;;;;;;;;;;13.50;78.50;;;;;;5063725;28;20275;-80
2023/04/21 11:39:02;;;;;;;;;;;13.50;77.70;;;;;;5099257;28;19923;-81
2023/04/21 11:41:28;;;;;;;;;;;13.60;78.20;;;;;;5056686;28;19913;-79
2023/04/21 11:43:53;;;;;;;;;;;13.70;79.10;;;;;;5095592;28;19965;-79
2023/04/21 11:46:23;;;;;;;;;;;13.90;78.80;;;;;;5049385;28;19948;-79
2023/04/21 11:48:58;;;;;;;;;;;14.00;76.90;;;;;;5063092;28;19980;-79
2023/04/21 11:51:23;;;;;;;;;;;14.10;77.00;;;;;;5046052;28;20292;-78
2023/04/21 11:53:49;;;;;;;;;;;14.20;77.00;;;;;;5043923;28;19920;-79
2023/04/21 11:56:20;;;;;;;;;;;14.30;77.00;;;;;;5048582;28;19929;-79
2023/04/21 11:58:47;;;;;;;;;;;14.50;75.60;;;;;;5050879;28;20392;-79
2023/04/21 12:01:14;;;;;;;;;;;14.40;75.10;;;;;;5047234;28;19923;-78
2023/04/21 12:03:40;;;;;;;;;;;14.40;76.60;;;;;;5041579;28;19914;-79
2023/04/21 12:06:06;;;;;;;;;;;14.40;76.80;;;;;;5058620;28;19935;-78
2023/04/21 12:08:31;;;;;;;;;;;14.40;75.60;;;;;;5084581;28;20003;-79
2023/04/21 12:10:58;;;;;;;;;;;14.50;76.00;;;;;;5069039;28;20372;-80
2023/04/21 12:13:27;;;;;;;;;;;14.60;73.60;;;;;;5060004;28;20359;-81
2023/04/21 12:15:53;;;;;;;;;;;14.70;74.10;;;;;;5088786;28;19912;-79
2023/04/21 12:18:18;;;;;;;;;;;14.80;74.60;;;;;;5057507;28;19970;-79
2023/04/21 12:20:51;;;;;;;;;;;14.90;73.30;;;;;;5049140;28;19966;-79
2023/04/21 12:23:17;;;;;;;;;;;14.90;72.90;;;;;;5064328;28;20300;-80
2023/04/21 12:25:44;;;;;;;;;;;15.10;72.50;;;;;;5061433;28;20301;-78
2023/04/21 12:28:10;;;;;;;;;;;15.30;74.60;;;;;;5064011;28;20688;-78
2023/04/21 12:30:35;;;;;;;;;;;15.30;71.90;;;;;;5061787;28;20003;-79
2023/04/21 12:33:01;;;;;;;;;;;15.30;72.50;;;;;;5054242;28;19916;-78
2023/04/21 12:35:26;;;;;;;;;;;15.50;73.40;;;;;;5057888;28;19917;-79
2023/04/21 12:37:52;;;;;;;;;;;15.70;73.70;;;;;;5042715;28;20003;-80
2023/04/21 12:40:17;;;;;;;;;;;15.90;71.10;;;;;;5064722;28;19921;-79
2023/04/21 12:42:43;;;;;;;;;;;15.80;70.80;;;;;;5039291;28;20371;-83
2023/04/21 12:45:08;;;;;;;;;;;15.80;68.80;;;;;;5040349;28;19920;-80
2023/04/21 12:47:35;;;;;;;;;;;15.80;69.30;;;;;;5060337;28;19912;-79
2023/04/21 12:50:01;;;;;;;;;;;15.80;70.50;;;;;;5045293;28;20134;-79
2023/04/21 12:52:26;;;;;;;;;;;15.80;69.80;;;;;;5042993;28;20022;-80
2023/04/21 12:54:52;;;;;;;;;;;15.80;70.80;;;;;;5057938;28;20213;-80
2023/04/21 12:57:17;;;;;;;;;;;16.00;71.20;;;;;;5071670;28;19969;-79
2023/04/21 12:59:43;;;;;;;;;;;16.10;70.50;;;;;;5048865;28;20734;-80
2023/04/21 13:02:08;;;;;;;;;;;16.30;69.80;;;;;;5044742;28;19924;-79
2023/04/21 13:04:35;;;;;;;;;;;16.50;69.50;;;;;;5047603;28;19921;-80
2023/04/21 13:07:00;;;;;;;;;;;16.50;69.60;;;;;;5068772;28;19920;-80
2023/04/21 13:09:26;;;;;;;;;;;16.60;69.80;;;;;;5062384;28;19920;-80
2023/04/21 13:11:51;;;;;;;;;;;16.80;68.90;;;;;;5050753;28;20371;-79
2023/04/21 13:14:17;;;;;;;;;;;16.90;68.50;;;;;;5065486;28;19939;-82
2023/04/21 13:16:43;;;;;;;;;;;16.40;68.10;;;;;;5063983;28;20412;-78
2023/04/21 13:19:08;;;;;;;;;;;16.50;68.20;;;;;;5062378;28;19978;-78
2023/04/21 13:21:34;;;;;;;;;;;16.30;68.90;;;;;;5066370;28;19920;-77
2023/04/21 13:24:01;;;;;;;;;;;16.30;69.30;;;;;;5058039;28;19917;-77
2023/04/21 13:26:27;;;;;;;;;;;16.20;69.60;;;;;;5062053;28;19920;-77
2023/04/21 13:28:52;;;;;;;;;;;16.00;69.50;;;;;;5064849;28;20455;-78
2023/04/21 13:31:18;;;;;;;;;;;16.00;68.10;;;;;;5061200;28;19942;-78
2023/04/21 13:33:43;;;;;;;;;;;16.00;68.80;;;;;;5086736;28;19913;-79
2023/04/21 13:36:09;;;;;;;;;;;16.10;69.90;;;;;;5072675;28;20003;-79
2023/04/21 13:38:35;;;;;;;;;;;16.20;68.80;;;;;;5081033;28;19913;-78
2023/04/21 13:41:01;;;;;;;;;;;16.50;69.20;;;;;;5064162;28;19916;-78
2023/04/21 13:43:26;;;;;;;;;;;16.50;68.30;;;;;;5086642;28;19917;-78
2023/04/21 13:45:52;;;;;;;;;;;16.60;68.60;;;;;;5050578;28;19958;-79
2023/04/21 13:48:18;;;;;;;;;;;16.70;69.30;;;;;;5053576;28;19923;-79
2023/04/21 13:50:43;;;;;;;;;;;16.70;67.10;;;;;;5055516;28;19922;-79
2023/04/21 13:53:09;;;;;;;;;;;16.60;66.30;;;;;;5099301;28;19916;-79
2023/04/21 13:55:35;;;;;;;;;;;16.60;68.00;;;;;;5087350;28;19913;-78
2023/04/21 13:58:00;;;;;;;;;;;16.50;67.40;;;;;;5055808;28;19956;-78
2023/04/21 14:00:26;;;;;;;;;;;16.60;68.00;;;;;;5056478;28;19912;-79
2023/04/21 14:02:51;;;;;;;;;;;16.60;67.60;;;;;;5067153;28;19967;-78
2023/04/21 14:05:17;;;;;;;;;;;16.50;68.20;;;;;;5053635;28;19975;-78
2023/04/21 14:07:43;;;;;;;;;;;16.60;67.30;;;;;;5057563;28;19943;-79
2023/04/21 14:10:08;;;;;;;;;;;16.60;66.90;;;;;;5054371;28;19920;-78
2023/04/21 14:12:34;;;;;;;;;;;16.70;66.60;;;;;;5069925;28;20347;-79
2023/04/21 14:14:59;;;;;;;;;;;16.90;67.10;;;;;;5061402;28;20395;-78
2023/04/21 14:17:25;;;;;;;;;;;17.10;67.30;;;;;;5100707;28;19912;-79
2023/04/21 14:19:51;;;;;;;;;;;17.10;65.90;;;;;;5060795;28;20621;-78
2023/04/21 14:22:16;;;;;;;;;;;17.20;66.50;;;;;;5053372;28;20359;-79